Time;durP1;ratioP1;P1;durP2;ratioP2;P2;SDS_P1;SDS_P2;PMS_P1;PMS_P2;Temp;Humidity;BMP_temperature;BMP_pressure;BME280_temperature;BME280_humidity;BME280_pressure;Samples;Min_cycle;Max_cycle;Signal;HPM_P1;HPM_P2
2021/10/15 00:00:45;;;;;;;5.90;5.65;;;;;;;9.76;81.86;101455.06;4389420;32;20793;-70
2021/10/15 00:03:11;;;;;;;4.80;4.60;;;;;;;9.70;82.05;101448.28;4382585;32;20131;-71
2021/10/15 00:05:36;;;;;;;6.10;5.80;;;;;;;9.67;82.32;101455.41;4389338;32;20081;-70
2021/10/15 00:08:01;;;;;;;4.32;4.12;;;;;;;9.65;82.23;101452.84;4367571;32;20559;-70
2021/10/15 00:10:27;;;;;;;4.30;4.10;;;;;;;9.61;82.78;101446.00;4377920;32;20568;-70
2021/10/15 00:12:52;;;;;;;4.70;4.50;;;;;;;9.59;83.07;101439.97;4388861;32;20457;-70
2021/10/15 00:15:18;;;;;;;4.40;4.20;;;;;;;9.58;82.78;101448.72;4382213;32;20075;-70
2021/10/15 00:17:43;;;;;;;4.05;3.85;;;;;;;9.64;82.89;101445.03;4396412;32;20170;-70
2021/10/15 00:20:10;;;;;;;4.30;4.10;;;;;;;9.57;82.42;101436.53;4374692;32;20100;-71
2021/10/15 00:22:35;;;;;;;6.05;5.75;;;;;;;9.56;83.42;101437.44;4381925;32;20077;-71
2021/10/15 00:25:01;;;;;;;4.50;4.30;;;;;;;9.53;82.85;101435.78;4390643;32;20072;-71
2021/10/15 00:27:26;;;;;;;4.50;4.30;;;;;;;9.51;83.99;101435.00;4382662;32;20902;-71
2021/10/15 00:29:51;;;;;;;4.30;4.10;;;;;;;9.52;83.35;101430.59;4387431;32;20099;-71
2021/10/15 00:32:17;;;;;;;4.32;4.12;;;;;;;9.52;84.14;101426.22;4394177;32;20096;-70
2021/10/15 00:34:43;;;;;;;5.55;5.35;;;;;;;9.39;83.57;101406.63;4373290;32;20069;-70
2021/10/15 00:37:09;;;;;;;4.35;4.15;;;;;;;9.48;83.29;101440.34;4390518;32;20088;-70
2021/10/15 00:39:34;;;;;;;4.80;4.60;;;;;;;9.43;83.25;101412.59;4380771;32;20071;-70
2021/10/15 00:41:59;;;;;;;4.30;4.10;;;;;;;9.38;83.16;101405.78;4375197;32;20140;-70
2021/10/15 00:44:25;;;;;;;4.30;4.10;;;;;;;9.37;83.66;101408.44;4393982;32;20130;-71
2021/10/15 00:46:50;;;;;;;4.87;4.68;;;;;;;9.33;83.91;101406.84;4375282;32;20065;-71
2021/10/15 00:49:15;;;;;;;6.25;5.95;;;;;;;9.26;83.77;101408.81;4392030;32;20092;-70
2021/10/15 00:51:42;;;;;;;4.78;4.57;;;;;;;9.23;84.72;101408.91;4387138;32;20470;-70
2021/10/15 00:54:08;;;;;;;4.40;4.20;;;;;;;9.18;84.44;101396.00;4400939;32;20083;-71
2021/10/15 00:56:33;;;;;;;4.65;4.45;;;;;;;9.12;84.70;101398.84;4388259;32;20064;-70
2021/10/15 00:58:59;;;;;;;4.30;4.10;;;;;;;9.10;85.12;101395.41;4383497;32;20081;-70
2021/10/15 01:01:24;;;;;;;4.20;4.00;;;;;;;9.06;84.97;101390.31;4387925;32;20084;-70
2021/10/15 01:03:50;;;;;;;4.25;4.05;;;;;;;9.02;85.56;101393.94;4378390;32;20080;-70
2021/10/15 01:06:15;;;;;;;4.37;4.18;;;;;;;8.96;86.10;101380.19;4369935;32;20083;-71
2021/10/15 01:08:45;;;;;;;4.20;4.00;;;;;;;8.93;85.75;101389.91;4378151;32;20692;-70
2021/10/15 01:11:10;;;;;;;4.10;3.90;;;;;;;8.90;86.19;101382.13;4383822;32;20081;-70
2021/10/15 01:13:36;;;;;;;4.80;4.60;;;;;;;8.85;86.12;101377.06;4395318;32;20173;-70
2021/10/15 01:16:09;;;;;;;4.10;3.90;;;;;;;8.82;86.65;101376.31;4377397;32;20081;-70
2021/10/15 01:18:35;;;;;;;5.57;5.37;;;;;;;8.77;86.81;101377.31;4380250;32;20060;-70
2021/10/15 01:21:00;;;;;;;4.82;4.62;;;;;;;8.74;86.53;101373.94;4374346;32;20069;-70
2021/10/15 01:23:25;;;;;;;4.62;4.43;;;;;;;8.68;86.69;101371.53;4379524;32;20080;-70
2021/10/15 01:25:53;;;;;;;4.37;4.18;;;;;;;8.64;87.73;101367.31;4377594;32;20080;-70
2021/10/15 01:28:18;;;;;;;4.07;3.87;;;;;;;8.60;87.90;101363.97;4382959;32;20148;-70
2021/10/15 01:30:43;;;;;;;6.05;5.75;;;;;;;8.55;88.44;101358.00;4377527;32;20089;-70
2021/10/15 01:33:09;;;;;;;4.25;4.05;;;;;;;8.52;88.25;101352.88;4388761;32;20095;-70
2021/10/15 01:35:34;;;;;;;5.75;5.45;;;;;;;8.48;88.14;101356.50;4379948;32;20072;-70
2021/10/15 01:37:59;;;;;;;4.20;4.00;;;;;;;8.48;88.60;101349.53;4361018;32;20610;-70
2021/10/15 01:40:25;;;;;;;4.35;4.15;;;;;;;8.46;87.92;101348.72;4391141;32;20087;-70
2021/10/15 01:42:53;;;;;;;4.40;4.10;;;;;;;8.41;88.12;101349.75;4374078;32;20092;-70
2021/10/15 01:45:19;;;;;;;4.00;3.80;;;;;;;8.34;87.79;101342.09;4383487;32;20080;-70
2021/10/15 01:47:44;;;;;;;5.47;5.28;;;;;;;8.32;88.65;101338.69;4375061;32;20647;-70
2021/10/15 01:50:10;;;;;;;6.28;5.97;;;;;;;8.16;88.94;101314.78;4370260;32;20119;-70
2021/10/15 01:52:35;;;;;;;5.95;5.65;;;;;;;8.20;88.70;101333.84;4391999;32;20073;-70
2021/10/15 01:55:00;;;;;;;4.18;3.97;;;;;;;8.21;89.29;101322.47;4365968;32;20087;-70
2021/10/15 01:57:26;;;;;;;4.28;4.07;;;;;;;8.17;89.61;101324.31;4380891;32;20062;-70
2021/10/15 01:59:51;;;;;;;4.50;4.30;;;;;;;8.13;89.38;101332.31;4361217;32;20129;-70
2021/10/15 02:02:16;;;;;;;3.97;3.80;;;;;;;8.12;90.24;101328.00;4377287;32;20092;-70
2021/10/15 02:04:42;;;;;;;5.80;5.55;;;;;;;8.10;90.18;101329.81;4372807;32;20584;-70
2021/10/15 02:07:07;;;;;;;4.30;4.10;;;;;;;8.09;89.85;101328.94;4390763;32;20424;-70
2021/10/15 02:09:33;;;;;;;5.18;4.97;;;;;;;8.08;90.73;101321.13;4388845;32;20120;-71
2021/10/15 02:12:02;;;;;;;4.53;4.32;;;;;;;7.74;89.94;101262.12;4375402;32;20434;-70
2021/10/15 02:14:27;;;;;;;4.15;3.95;;;;;;;8.05;90.37;101309.03;4367118;32;20574;-69
2021/10/15 02:16:53;;;;;;;4.07;3.87;;;;;;;8.03;90.41;101312.59;4373843;32;20069;-70
2021/10/15 02:19:18;;;;;;;4.20;4.00;;;;;;;8.02;90.01;101305.66;4368788;32;20061;-70
2021/10/15 02:21:44;;;;;;;5.37;5.18;;;;;;;7.99;89.81;101296.16;4376296;32;20069;-72
2021/10/15 02:24:09;;;;;;;4.20;4.00;;;;;;;7.92;91.21;101300.75;4370195;32;20120;-69
2021/10/15 02:26:34;;;;;;;5.70;5.45;;;;;;;7.97;91.00;101293.59;4379076;32;20084;-71
2021/10/15 02:29:00;;;;;;;4.10;3.90;;;;;;;7.68;90.23;101242.25;4375973;32;20061;-72
2021/10/15 02:31:25;;;;;;;4.25;4.05;;;;;;;7.98;90.08;101287.47;4381669;32;20083;-71
2021/10/15 02:33:50;;;;;;;4.10;3.90;;;;;;;7.99;90.48;101286.56;4388899;32;20073;-71
2021/10/15 02:36:16;;;;;;;3.80;3.70;;;;;;;8.03;90.67;101287.31;4376617;32;20484;-71
2021/10/15 02:38:41;;;;;;;6.15;5.85;;;;;;;8.07;90.68;101280.25;4394695;32;20084;-71
2021/10/15 02:41:06;;;;;;;4.25;4.05;;;;;;;8.12;90.65;101275.72;4380741;32;20084;-71
2021/10/15 02:43:32;;;;;;;5.00;4.80;;;;;;;8.18;90.96;101281.59;4382012;32;20065;-70
2021/10/15 02:45:57;;;;;;;3.85;3.75;;;;;;;8.29;90.95;101278.63;4379185;32;20598;-71
2021/10/15 02:48:22;;;;;;;4.10;3.90;;;;;;;8.34;89.37;101273.25;4360229;32;20069;-70
2021/10/15 02:50:48;;;;;;;4.75;4.55;;;;;;;8.34;89.65;101263.63;4371973;32;20447;-71
2021/10/15 02:53:13;;;;;;;3.87;3.78;;;;;;;8.45;89.42;101267.69;4362012;32;20078;-71
2021/10/15 02:55:38;;;;;;;5.95;5.65;;;;;;;8.49;88.97;101258.81;4368049;32;20552;-70
2021/10/15 02:58:04;;;;;;;4.03;3.85;;;;;;;8.51;88.82;101255.25;4386473;32;20062;-70
2021/10/15 03:00:29;;;;;;;4.20;4.00;;;;;;;8.54;88.30;101260.37;4377276;32;20084;-70
2021/10/15 03:02:55;;;;;;;4.05;3.85;;;;;;;8.51;88.88;101246.53;4392696;32;20991;-71
2021/10/15 03:05:20;;;;;;;4.10;3.90;;;;;;;8.60;88.28;101256.69;4376732;32;20682;-71
2021/10/15 03:07:46;;;;;;;6.05;5.75;;;;;;;8.63;89.11;101248.72;4388368;32;20077;-71
2021/10/15 03:10:11;;;;;;;3.97;3.80;;;;;;;8.69;88.18;101248.50;4378079;32;20903;-71
2021/10/15 03:12:37;;;;;;;4.87;4.68;;;;;;;8.74;88.10;101240.47;4376050;32;20052;-70
2021/10/15 03:15:03;;;;;;;4.20;4.00;;;;;;;8.62;88.17;101217.38;4393743;32;20859;-71
2021/10/15 03:17:28;;;;;;;4.30;4.10;;;;;;;8.82;88.57;101238.47;4359123;32;20085;-71
2021/10/15 03:19:53;;;;;;;4.30;4.10;;;;;;;7.63;88.17;101044.78;4384443;32;20555;-71
2021/10/15 03:22:19;;;;;;;4.55;4.10;;;;;;;8.72;87.84;101205.66;4389722;32;20083;-71
2021/10/15 03:24:44;;;;;;;6.15;5.85;;;;;;;8.92;87.09;101242.47;4390226;32;20076;-70
2021/10/15 03:27:09;;;;;;;4.10;3.90;;;;;;;8.98;87.61;101239.63;4381963;32;20073;-70
2021/10/15 03:29:35;;;;;;;5.25;5.05;;;;;;;9.01;86.41;101240.41;4376437;32;20064;-70
2021/10/15 03:32:02;;;;;;;4.00;3.80;;;;;;;9.04;87.04;101235.03;4371291;32;20155;-70
2021/10/15 03:34:28;;;;;;;4.10;3.90;;;;;;;9.10;87.03;101233.06;4382857;32;20088;-70
2021/10/15 03:36:53;;;;;;;3.87;3.78;;;;;;;9.14;86.08;101225.94;4395526;32;20084;-70
2021/10/15 03:39:18;;;;;;;4.25;4.05;;;;;;;9.23;85.45;101225.59;4397872;32;20082;-70
2021/10/15 03:41:44;;;;;;;5.25;4.95;;;;;;;9.26;84.91;101222.88;4380562;32;20068;-70
2021/10/15 03:44:09;;;;;;;4.30;4.10;;;;;;;9.33;85.33;101223.47;4402618;32;20069;-69
2021/10/15 03:46:34;;;;;;;5.90;5.45;;;;;;;9.37;84.10;101219.81;4389910;32;20061;-70
2021/10/15 03:49:00;;;;;;;4.07;3.87;;;;;;;8.59;83.91;101088.37;4404026;32;20081;-70
2021/10/15 03:51:25;;;;;;;4.15;3.95;;;;;;;9.45;83.56;101211.69;4392777;32;20497;-71
2021/10/15 03:53:50;;;;;;;4.47;4.28;;;;;;;9.50;83.89;101214.94;4379738;32;20467;-70
2021/10/15 03:56:16;;;;;;;4.20;4.00;;;;;;;9.53;83.53;101206.97;4363960;32;20064;-69
2021/10/15 03:58:41;;;;;;;6.45;6.15;;;;;;;9.57;82.62;101206.78;4388415;32;20579;-70
2021/10/15 04:01:06;;;;;;;4.40;4.20;;;;;;;9.40;82.47;101175.16;4382199;32;20069;-70
2021/10/15 04:03:32;;;;;;;5.15;4.93;;;;;;;9.67;81.57;101209.06;4376926;32;20165;-69
2021/10/15 04:05:58;;;;;;;4.10;3.90;;;;;;;9.71;81.30;101208.88;4367758;32;20074;-70
2021/10/15 04:08:23;;;;;;;4.30;4.10;;;;;;;9.71;81.83;101206.25;4377637;32;20240;-70
2021/10/15 04:10:48;;;;;;;5.15;4.95;;;;;;;9.74;81.90;101200.00;4366456;32;20171;-70
2021/10/15 04:13:14;;;;;;;4.20;4.00;;;;;;;9.75;80.94;101196.50;4392954;32;20061;-70
2021/10/15 04:15:39;;;;;;;5.78;5.47;;;;;;;9.76;81.33;101200.81;4364279;32;20663;-70
2021/10/15 04:18:04;;;;;;;4.00;3.80;;;;;;;9.79;81.09;101192.81;4387362;32;20068;-69
2021/10/15 04:20:30;;;;;;;4.35;4.15;;;;;;;9.79;80.97;101193.66;4385786;32;20642;-70
2021/10/15 04:22:55;;;;;;;4.50;4.30;;;;;;;9.78;81.39;101180.62;4387049;32;20176;-69
2021/10/15 04:25:20;;;;;;;3.87;3.75;;;;;;;9.77;81.61;101177.16;4373256;32;20146;-70
2021/10/15 04:27:46;;;;;;;5.65;5.43;;;;;;;9.82;80.76;101178.72;4379356;32;20594;-71
2021/10/15 04:30:11;;;;;;;4.68;4.47;;;;;;;9.82;81.27;101173.50;4371183;32;20071;-71
2021/10/15 04:32:37;;;;;;;5.93;5.65;;;;;;;9.84;80.73;101161.19;4381029;32;20073;-71
2021/10/15 04:35:02;;;;;;;4.20;4.00;;;;;;;9.75;80.91;101149.31;4370153;32;21282;-71
2021/10/15 04:37:28;;;;;;;4.05;3.85;;;;;;;9.51;79.93;101104.84;4382745;32;20074;-71
2021/10/15 04:39:53;;;;;;;4.28;4.07;;;;;;;9.89;80.84;101170.56;4377423;32;20151;-71
2021/10/15 04:42:19;;;;;;;4.00;3.80;;;;;;;9.88;80.76;101158.38;4365245;32;20070;-70
2021/10/15 04:44:45;;;;;;;6.53;6.15;;;;;;;9.90;80.28;101164.41;4367587;32;20065;-71
2021/10/15 04:47:10;;;;;;;4.10;3.90;;;;;;;9.63;80.52;101113.97;4374158;32;20404;-71
2021/10/15 04:49:35;;;;;;;6.20;5.90;;;;;;;9.90;80.90;101156.56;4391880;32;20073;-69
2021/10/15 04:52:01;;;;;;;5.00;4.80;;;;;;;9.93;80.95;101160.81;4395197;32;20077;-72
2021/10/15 04:54:26;;;;;;;4.30;4.10;;;;;;;9.92;81.12;101157.34;4372469;32;20081;-74
2021/10/15 04:56:51;;;;;;;3.95;3.80;;;;;;;9.94;81.38;101157.25;4384435;32;21154;-74
2021/10/15 04:59:17;;;;;;;4.45;4.25;;;;;;;9.96;80.95;101158.03;4367887;32;20540;-72
2021/10/15 05:01:42;;;;;;;5.55;5.35;;;;;;;9.90;80.52;101148.69;4385044;32;20069;-73
2021/10/15 05:04:07;;;;;;;4.40;4.20;;;;;;;9.93;81.04;101152.94;4381329;32;20568;-72
2021/10/15 05:06:33;;;;;;;5.03;4.82;;;;;;;9.92;81.42;101156.47;4385339;32;20135;-73
2021/10/15 05:11:32;;;;;;;4.57;4.37;;;;;;;9.94;81.15;101145.00;4378079;32;20065;-74
2021/10/15 05:13:58;;;;;;;4.25;4.05;;;;;;;9.94;80.84;101138.87;4392076;32;20514;-73
2021/10/15 05:16:23;;;;;;;3.97;3.80;;;;;;;9.93;81.23;101145.91;4375788;32;20101;-73
2021/10/15 05:18:49;;;;;;;4.30;4.10;;;;;;;9.92;81.51;101144.22;4376083;32;20953;-73
2021/10/15 05:21:14;;;;;;;4.40;4.20;;;;;;;9.92;81.61;101149.47;4381861;32;20421;-73
2021/10/15 05:23:39;;;;;;;5.95;5.65;;;;;;;9.91;81.02;101147.75;4385384;32;20081;-73
2021/10/15 05:26:05;;;;;;;4.30;4.10;;;;;;;9.91;81.66;101144.28;4371427;32;20080;-72
2021/10/15 05:28:30;;;;;;;4.45;4.25;;;;;;;9.94;81.22;101144.12;4395445;32;20662;-74
2021/10/15 05:30:57;;;;;;;4.30;4.10;;;;;;;9.92;81.41;101143.34;4376510;32;20101;-71
2021/10/15 05:33:22;;;;;;;4.20;4.00;;;;;;;9.62;81.92;101093.91;4380790;32;20139;-70
2021/10/15 05:35:47;;;;;;;5.22;5.03;;;;;;;9.93;82.07;101137.22;4375792;32;21076;-71
2021/10/15 05:38:13;;;;;;;4.20;4.00;;;;;;;9.93;81.66;101135.44;4393974;32;20423;-71
2021/10/15 05:40:38;;;;;;;5.97;5.68;;;;;;;9.96;81.76;101137.06;4392252;32;20455;-71
2021/10/15 05:43:04;;;;;;;4.45;4.25;;;;;;;9.97;81.65;101130.91;4370590;32;20066;-70
2021/10/15 05:45:29;;;;;;;4.05;3.85;;;;;;;9.97;81.75;101133.53;4394413;32;20131;-70
2021/10/15 05:47:54;;;;;;;4.55;4.35;;;;;;;9.97;82.17;101137.00;4365200;32;20075;-70
2021/10/15 05:50:20;;;;;;;4.95;4.65;;;;;;;9.99;82.21;101131.69;4372488;32;20080;-71
2021/10/15 05:52:47;;;;;;;6.10;5.80;;;;;;;10.01;81.90;101134.25;4380508;32;20061;-70
2021/10/15 06:00:22;;;;;;;4.10;3.90;;;;;;;10.02;81.83;101136.78;4382655;32;20135;-71
2021/10/15 06:02:47;;;;;;;4.10;3.90;;;;;;;10.04;81.98;101149.84;4380095;32;20085;-71
2021/10/15 06:15:37;;;;;;;5.40;5.20;;;;;;;10.05;82.33;101120.09;4384428;32;20059;-71
2021/10/15 06:18:17;;;;;;;4.18;3.97;;;;;;;10.12;82.00;101135.50;4375102;32;20200;-69
2021/10/15 06:20:43;;;;;;;5.95;5.65;;;;;;;10.02;82.35;101117.59;4370069;32;20815;-69
2021/10/15 06:23:08;;;;;;;4.40;4.20;;;;;;;10.14;82.38;101132.78;4370242;32;20085;-71
2021/10/15 06:25:34;;;;;;;5.45;5.22;;;;;;;10.14;83.13;101131.03;4381461;32;20156;-71
2021/10/15 06:28:00;;;;;;;4.50;4.30;;;;;;;10.17;82.68;101124.81;4388215;32;20061;-69
2021/10/15 06:30:26;;;;;;;4.95;4.65;;;;;;;10.22;82.93;101129.84;4368022;32;20100;-69
2021/10/15 06:32:52;;;;;;;4.30;4.10;;;;;;;10.19;83.36;101133.47;4371834;32;20069;-69
2021/10/15 06:35:17;;;;;;;4.30;4.10;;;;;;;10.27;83.04;101139.22;4368115;32;20106;-69
2021/10/15 06:37:42;;;;;;;5.82;5.57;;;;;;;10.27;83.37;101136.59;4384939;32;20083;-69
2021/10/15 06:40:08;;;;;;;4.28;4.07;;;;;;;10.31;83.25;101137.34;4382193;32;20080;-69
2021/10/15 06:42:34;;;;;;;4.85;4.65;;;;;;;10.36;83.33;101145.84;4385785;32;20057;-69
2021/10/15 06:45:00;;;;;;;4.30;4.10;;;;;;;10.35;82.74;101131.06;4371707;32;20084;-71
2021/10/15 06:47:28;;;;;;;4.40;4.20;;;;;;;10.43;83.27;101138.59;4377023;32;20580;-71
2021/10/15 06:49:53;;;;;;;4.60;4.40;;;;;;;10.46;82.79;101141.06;4387759;32;20641;-70
2021/10/15 06:52:19;;;;;;;4.20;4.00;;;;;;;10.12;82.42;101076.94;4396719;32;20085;-69
2021/10/15 06:54:44;;;;;;;5.85;5.55;;;;;;;10.55;82.75;101140.66;4369086;32;20061;-69
2021/10/15 06:57:09;;;;;;;4.60;4.40;;;;;;;10.57;82.29;101134.41;4375603;32;20657;-69
2021/10/15 06:59:35;;;;;;;4.93;4.72;;;;;;;10.63;82.31;101133.28;4385406;32;20076;-69
2021/10/15 07:02:00;;;;;;;4.45;4.25;;;;;;;10.55;81.88;101112.63;4371371;32;20094;-70
2021/10/15 07:04:26;;;;;;;4.20;4.00;;;;;;;10.70;82.29;101134.69;4375743;32;21059;-70
2021/10/15 07:06:51;;;;;;;4.40;4.20;;;;;;;10.75;81.83;101134.50;4383066;32;20095;-68
2021/10/15 07:09:16;;;;;;;4.72;4.53;;;;;;;10.77;81.58;101136.13;4375149;32;20123;-69
2021/10/15 07:11:42;;;;;;;4.30;4.10;;;;;;;10.80;81.56;101126.41;4383888;32;20116;-70
2021/10/15 07:14:07;;;;;;;4.37;4.18;;;;;;;10.89;82.17;101129.47;4382512;32;20080;-70
2021/10/15 07:16:33;;;;;;;4.25;4.05;;;;;;;10.97;81.82;101127.31;4381510;32;20081;-70
2021/10/15 07:18:58;;;;;;;4.37;4.18;;;;;;;11.05;81.51;101134.84;4373953;32;20586;-69
2021/10/15 07:21:23;;;;;;;4.22;4.03;;;;;;;11.08;81.65;101134.69;4395230;32;20061;-69
2021/10/15 07:23:49;;;;;;;4.20;4.00;;;;;;;11.14;81.46;101141.44;4388486;32;20076;-70
2021/10/15 07:26:14;;;;;;;4.25;4.05;;;;;;;10.35;80.80;101007.75;4367501;32;20457;-69
2021/10/15 07:28:39;;;;;;;6.30;6.00;;;;;;;11.30;81.02;101141.56;4387532;32;20131;-69
2021/10/15 07:31:05;;;;;;;4.30;4.10;;;;;;;10.64;80.57;101032.59;4376930;32;20523;-69
2021/10/15 07:33:30;;;;;;;4.22;4.03;;;;;;;11.40;80.54;101134.09;4389034;32;20069;-69
2021/10/15 07:35:56;;;;;;;4.60;4.40;;;;;;;11.38;80.76;101121.87;4379491;32;20140;-70
2021/10/15 07:38:21;;;;;;;4.40;4.20;;;;;;;11.58;80.02;101135.81;4362461;32;20680;-69
2021/10/15 07:40:46;;;;;;;6.25;5.95;;;;;;;11.56;80.00;101133.25;4380504;32;20135;-71
2021/10/15 07:43:12;;;;;;;4.50;4.30;;;;;;;11.60;80.27;101133.94;4372086;32;20597;-69
2021/10/15 07:45:37;;;;;;;6.15;5.85;;;;;;;11.64;79.92;101132.88;4390464;32;20614;-69
2021/10/15 07:48:03;;;;;;;4.40;4.20;;;;;;;11.61;80.21;101140.06;4385149;32;20060;-69
2021/10/15 07:50:28;;;;;;;4.45;4.25;;;;;;;11.47;80.19;101124.97;4381922;32;20066;-70
2021/10/15 07:52:53;;;;;;;4.43;4.22;;;;;;;11.53;80.33;101143.09;4363977;32;20090;-70
2021/10/15 07:55:19;;;;;;;4.70;4.30;;;;;;;11.62;80.60;101139.13;4385923;32;20806;-69
2021/10/15 07:57:44;;;;;;;5.85;5.60;;;;;;;11.65;80.72;101131.94;4375495;32;20219;-70
2021/10/15 08:00:10;;;;;;;4.50;4.30;;;;;;;11.69;80.66;101135.28;4379735;32;20612;-69
2021/10/15 08:02:35;;;;;;;5.78;5.53;;;;;;;11.72;80.82;101137.75;4372941;32;20069;-70
2021/10/15 08:05:01;;;;;;;4.60;4.40;;;;;;;11.70;79.71;101129.09;4385077;32;20069;-70
2021/10/15 08:07:26;;;;;;;4.60;4.40;;;;;;;11.68;80.31;101138.81;4394126;32;20085;-70
2021/10/15 08:09:52;;;;;;;4.40;4.20;;;;;;;11.69;80.37;101149.28;4364537;32;21616;-69
2021/10/15 08:12:17;;;;;;;4.68;4.45;;;;;;;11.76;80.44;101148.03;4378496;32;20075;-70
2021/10/15 08:14:42;;;;;;;6.55;6.25;;;;;;;11.78;80.22;101148.81;4385859;32;20143;-72
2021/10/15 08:17:08;;;;;;;4.50;4.30;;;;;;;11.81;80.55;101150.44;4377476;32;20144;-69
2021/10/15 08:19:33;;;;;;;5.95;5.68;;;;;;;11.83;80.58;101153.84;4381206;32;20065;-69
2021/10/15 08:21:59;;;;;;;4.90;4.70;;;;;;;11.83;80.63;101160.91;4374222;32;20617;-70
2021/10/15 08:24:24;;;;;;;4.35;4.15;;;;;;;11.87;80.74;101160.66;4362157;32;20115;-70
2021/10/15 08:26:50;;;;;;;5.22;5.03;;;;;;;11.49;80.48;101094.22;4378784;32;20088;-71
2021/10/15 08:29:16;;;;;;;4.53;4.32;;;;;;;11.52;80.51;101100.16;4366238;32;20088;-70
2021/10/15 08:31:42;;;;;;;6.05;5.75;;;;;;;11.82;80.87;101160.03;4385990;32;20235;-73
2021/10/15 08:34:09;;;;;;;4.82;4.62;;;;;;;11.83;81.23;101155.63;4365391;32;20077;-71
2021/10/15 08:36:34;;;;;;;5.95;5.68;;;;;;;11.97;81.48;101161.09;4377944;32;20101;-70
2021/10/15 08:39:00;;;;;;;4.68;4.47;;;;;;;11.79;80.93;101104.97;4374694;32;21172;-70
2021/10/15 08:41:25;;;;;;;4.70;4.50;;;;;;;12.14;80.40;101154.94;4382311;32;20069;-71
2021/10/15 08:43:57;;;;;;;4.57;4.37;;;;;;;12.21;80.88;101143.19;4374226;32;20088;-70
2021/10/15 08:46:23;;;;;;;4.30;4.10;;;;;;;12.34;80.40;101144.22;4400934;32;20180;-70
2021/10/15 08:48:48;;;;;;;5.55;5.35;;;;;;;12.31;80.54;101133.88;4373560;32;20329;-70
2021/10/15 08:51:14;;;;;;;5.05;4.85;;;;;;;12.43;80.33;101152.56;4367224;32;20083;-72
2021/10/15 08:53:53;;;;;;;6.15;5.85;;;;;;;12.48;80.34;101145.28;4376009;32;20162;-71
2021/10/15 08:56:21;;;;;;;4.70;4.50;;;;;;;12.31;80.44;101133.88;4374725;32;20089;-71
2021/10/15 08:58:48;;;;;;;6.47;6.18;;;;;;;12.14;79.50;101081.28;4376741;32;20065;-70
2021/10/15 09:01:14;;;;;;;4.40;4.20;;;;;;;12.67;79.90;101155.69;4386733;32;20088;-71
2021/10/15 09:03:39;;;;;;;6.10;5.80;;;;;;;11.97;79.72;101013.78;4360714;32;21063;-71
2021/10/15 09:06:08;;;;;;;4.50;4.30;;;;;;;12.86;79.09;101161.66;4366780;32;20072;-70
2021/10/15 09:08:51;;;;;;;4.50;4.30;;;;;;;12.84;79.41;101146.88;4389397;32;20073;-72
2021/10/15 09:11:23;;;;;;;4.85;4.62;;;;;;;12.95;79.29;101168.25;4364436;32;20085;-71
2021/10/15 09:13:49;;;;;;;5.32;5.12;;;;;;;12.94;79.41;101166.53;4386434;32;20070;-72
2021/10/15 09:16:14;;;;;;;4.70;4.50;;;;;;;12.93;78.41;101170.94;4370806;32;20916;-72
2021/10/15 09:18:44;;;;;;;6.45;6.15;;;;;;;12.78;79.09;101153.34;4362297;32;20077;-72
2021/10/15 09:21:14;;;;;;;4.60;4.40;;;;;;;12.47;78.78;101098.81;4363596;32;20814;-72
2021/10/15 09:23:44;;;;;;;5.97;5.68;;;;;;;12.73;79.01;101164.12;4391282;32;20084;-72
2021/10/15 09:26:09;;;;;;;4.90;4.70;;;;;;;12.80;80.51;101188.34;4389678;32;20080;-72
2021/10/15 09:28:42;;;;;;;5.05;4.85;;;;;;;12.69;81.79;101195.94;4366262;32;20069;-72
2021/10/15 09:31:07;;;;;;;4.82;4.62;;;;;;;12.57;82.97;101187.78;4379476;32;20069;-73
2021/10/15 09:33:32;;;;;;;4.50;4.30;;;;;;;12.45;83.96;101206.00;4362789;32;20582;-72
2021/10/15 09:36:07;;;;;;;4.97;4.68;;;;;;;12.32;85.47;101203.16;4369956;32;20073;-72
2021/10/15 09:38:33;;;;;;;4.37;4.18;;;;;;;12.18;87.30;101217.00;4382509;32;20084;-72
2021/10/15 09:40:58;;;;;;;4.70;4.50;;;;;;;12.20;88.03;101224.84;4374513;32;20069;-72
2021/10/15 09:43:32;;;;;;;4.70;4.50;;;;;;;12.07;89.72;101237.75;4369317;32;20127;-72
2021/10/15 09:45:57;;;;;;;4.95;4.65;;;;;;;12.06;90.66;101233.41;4380654;32;20107;-71
2021/10/15 09:48:24;;;;;;;4.70;4.50;;;;;;;12.10;91.29;101230.53;4363270;32;20072;-69
2021/10/15 09:51:12;;;;;;;5.15;4.95;;;;;;;12.21;92.04;101239.69;4367954;32;20104;-75
2021/10/15 09:53:43;;;;;;;5.97;5.68;;;;;;;12.40;92.15;101242.25;4383715;32;20556;-70
2021/10/15 09:56:08;;;;;;;5.00;4.80;;;;;;;12.61;91.38;101243.78;4376220;32;20092;-69
2021/10/15 09:58:34;;;;;;;5.82;5.57;;;;;;;12.80;91.23;101243.66;4374072;32;20103;-71
2021/10/15 10:00:59;;;;;;;5.00;4.80;;;;;;;12.87;89.95;101258.22;4376503;32;20561;-71
2021/10/15 10:03:26;;;;;;;4.30;4.10;;;;;;;12.95;89.83;101242.00;4364356;32;20081;-70
2021/10/15 10:05:51;;;;;;;5.07;4.87;;;;;;;13.06;89.17;101244.91;4372642;32;20069;-69
2021/10/15 10:08:17;;;;;;;4.50;4.30;;;;;;;13.06;89.06;101252.78;4368361;32;20080;-70
2021/10/15 10:10:43;;;;;;;6.65;6.35;;;;;;;13.23;89.25;101248.41;4382644;32;20967;-71
2021/10/15 10:13:10;;;;;;;4.85;4.65;;;;;;;13.29;88.98;101253.34;4374388;32;20142;-75
2021/10/15 10:15:38;;;;;;;5.70;5.43;;;;;;;13.40;88.42;101253.63;4356127;32;20741;-75
2021/10/15 10:18:23;;;;;;;4.72;4.53;;;;;;;13.40;88.39;101258.91;4374995;32;20074;-71
2021/10/15 10:20:56;;;;;;;5.32;5.12;;;;;;;13.49;87.81;101260.19;4388813;32;20091;-70
2021/10/15 10:23:33;;;;;;;4.72;4.53;;;;;;;13.25;87.00;101263.22;4363427;32;20069;-71
2021/10/15 10:26:00;;;;;;;4.60;4.40;;;;;;;13.24;87.90;101261.50;4359306;32;20221;-71
2021/10/15 10:28:27;;;;;;;5.65;5.35;;;;;;;12.94;88.83;101233.22;4388085;32;21682;-73
2021/10/15 10:31:03;;;;;;;4.80;4.60;;;;;;;13.22;88.86;101273.91;4367471;32;20124;-72
2021/10/15 10:33:29;;;;;;;5.37;5.07;;;;;;;13.17;88.91;101250.44;4390268;32;20089;-72
2021/10/15 10:35:54;;;;;;;4.55;4.35;;;;;;;13.14;88.57;101276.94;4372972;32;20100;-72
2021/10/15 10:38:19;;;;;;;4.82;4.62;;;;;;;13.03;89.19;101281.09;4398210;32;20069;-74
2021/10/15 10:41:00;;;;;;;6.45;6.15;;;;;;;12.98;89.67;101289.25;4388182;32;20988;-72
2021/10/15 10:43:26;;;;;;;5.10;4.90;;;;;;;12.94;89.90;101290.34;4381829;32;20127;-72
2021/10/15 10:46:12;;;;;;;4.95;4.75;;;;;;;12.97;90.38;101275.22;4384859;32;20374;-70
2021/10/15 10:48:47;;;;;;;6.05;5.75;;;;;;;13.01;90.72;101278.56;4366073;32;20084;-70
2021/10/15 10:51:17;;;;;;;17.23;16.42;;;;;;;11.41;90.19;101041.19;4314041;32;20073;-70
2021/10/15 10:54:01;;;;;;;6.10;5.80;;;;;;;12.90;90.21;101292.28;4365962;32;20073;-70
2021/10/15 10:56:43;;;;;;;4.60;4.40;;;;;;;12.51;91.50;101303.09;4399661;32;20174;-70
2021/10/15 10:59:25;;;;;;;6.18;5.90;;;;;;;11.73;88.63;101320.91;4364474;32;20646;-70
2021/10/15 11:01:53;;;;;;;4.47;4.28;;;;;;;11.66;89.06;101315.06;4384374;32;20200;-70
2021/10/15 11:04:24;;;;;;;4.35;4.15;;;;;;;11.46;89.89;101321.22;4401082;32;20145;-69
2021/10/15 11:07:00;;;;;;;5.65;5.45;;;;;;;11.54;90.63;101326.97;4391305;32;20159;-71
2021/10/15 11:09:29;;;;;;;4.50;4.30;;;;;;;11.52;91.35;101333.25;4384392;32;20093;-70
2021/10/15 11:11:55;;;;;;;5.43;5.22;;;;;;;11.72;92.30;101334.94;4390531;32;20074;-70
2021/10/15 11:14:22;;;;;;;4.60;4.40;;;;;;;11.74;90.86;101346.25;4375645;32;20095;-70
2021/10/15 11:16:47;;;;;;;6.00;5.70;;;;;;;11.63;88.93;101307.31;4390805;32;20188;-69
2021/10/15 11:19:17;;;;;;;4.50;4.30;;;;;;;11.43;87.88;101287.22;4361993;32;20640;-71
2021/10/15 11:21:43;;;;;;;6.18;5.87;;;;;;;11.98;88.92;101357.44;4377241;32;20210;-72
2021/10/15 11:24:12;;;;;;;4.45;4.25;;;;;;;12.23;88.75;101350.97;4362239;32;20980;-71
2021/10/15 11:26:38;;;;;;;5.90;5.65;;;;;;;12.26;87.69;101340.31;4400489;32;20081;-72
2021/10/15 11:29:03;;;;;;;4.70;4.50;;;;;;;12.27;87.87;101358.66;4361848;32;20136;-72
2021/10/15 11:31:29;;;;;;;4.60;4.40;;;;;;;12.38;86.87;101345.81;4378552;32;20651;-70
2021/10/15 11:34:06;;;;;;;4.47;4.28;;;;;;;12.33;86.31;101307.50;4374928;32;20077;-69
2021/10/15 11:36:32;;;;;;;4.60;4.40;;;;;;;12.29;86.80;101259.44;4386853;32;20073;-73
2021/10/15 11:39:00;;;;;;;4.82;4.62;;;;;;;12.95;84.18;101356.13;4378672;32;20095;-72
2021/10/15 11:41:26;;;;;;;4.50;4.30;;;;;;;13.23;83.86;101354.69;4377575;32;21081;-72
2021/10/15 11:43:51;;;;;;;4.90;4.70;;;;;;;13.36;83.07;101360.19;4377306;32;20084;-72